Time;durP1;ratioP1;P1;durP2;ratioP2;P2;SDS_P1;SDS_P2;PMS_P1;PMS_P2;Temp;Humidity;BMP_temperature;BMP_pressure;BME280_temperature;BME280_humidity;BME280_pressure;Samples;Min_cycle;Max_cycle;Signal;HPM_P1;HPM_P2
2022/09/05 00:11:35;;;;;;;7.17;3.37;;;;;;;10.99;94.99;101028.31;31491788;28;20063;-75
2022/09/05 00:27:07;;;;;;;5.60;3.33;;;;;;;10.82;91.44;101029.97;31469859;28;20433;-74
2022/09/05 00:42:16;;;;;;;5.83;3.53;;;;;;;10.69;91.85;101021.47;31469257;28;20049;-74
2022/09/05 00:57:30;;;;;;;6.27;3.37;;;;;;;10.67;93.28;101028.47;31468898;28;20052;-75
2022/09/05 01:12:35;;;;;;;4.97;3.60;;;;;;;10.63;94.40;101027.75;31470584;28;20181;-74
2022/09/05 01:28:03;;;;;;;4.87;3.50;;;;;;;10.69;92.38;101028.84;31470533;28;20502;-74
2022/09/05 01:43:43;;;;;;;5.60;3.50;;;;;;;10.61;91.07;101027.38;31469653;28;20055;-76
2022/09/05 01:59:20;;;;;;;4.80;3.30;;;;;;;10.47;91.48;101020.81;31480350;28;20049;-75
2022/09/05 02:14:50;;;;;;;5.37;3.53;;;;;;;10.46;91.96;101016.56;31466056;28;20048;-73
2022/09/05 02:30:13;;;;;;;6.97;4.67;;;;;;;10.43;92.10;101020.06;31473276;28;20070;-75
2022/09/05 02:45:40;;;;;;;13.23;6.47;;;;;;;10.47;91.79;101014.63;31486920;28;20060;-75
2022/09/05 03:01:08;;;;;;;16.73;7.20;;;;;;;10.54;92.02;101031.66;31497187;28;20044;-74
2022/09/05 03:16:29;;;;;;;17.23;7.90;;;;;;;10.48;90.90;101044.09;31481875;28;20379;-74
2022/09/05 03:31:52;;;;;;;16.00;7.07;;;;;;;10.65;90.50;101047.09;31482884;28;20135;-75
2022/09/05 03:47:03;;;;;;;9.10;5.37;;;;;;;10.75;90.03;101051.72;31492260;28;20615;-76
2022/09/05 04:02:09;;;;;;;9.77;5.80;;;;;;;11.05;91.10;101053.88;31483069;28;20102;-74
2022/09/05 04:17:41;;;;;;;7.38;4.85;;;;;;;11.38;88.49;101055.19;31468621;28;20463;-74
2022/09/05 04:33:09;;;;;;;4.90;4.40;;;;;;;11.99;85.16;101064.41;31477714;28;20041;-74
2022/09/05 04:48:18;;;;;;;6.13;4.20;;;;;;;12.76;85.10;101072.03;31475191;28;20513;-75
2022/09/05 05:03:34;;;;;;;5.57;4.03;;;;;;;13.38;83.26;101068.06;31489513;28;20300;-74
2022/09/05 05:19:24;;;;;;;6.53;4.10;;;;;;;14.31;77.11;101052.34;31463737;28;20055;-76
2022/09/05 05:34:43;;;;;;;3.90;3.20;;;;;;;15.75;70.71;101051.47;31477276;28;20109;-75
2022/09/05 05:50:02;;;;;;;12.93;3.80;;;;;;;17.05;67.22;101059.13;31484328;28;21050;-76
2022/09/05 06:05:26;;;;;;;4.50;2.85;;;;;;;17.91;62.03;101070.88;31476809;28;20045;-75
2022/09/05 06:20:53;;;;;;;3.90;2.03;;;;;;;19.25;55.86;101073.31;31454223;28;20460;-76
2022/09/05 06:36:36;;;;;;;4.88;3.10;;;;;;;20.20;54.59;101078.03;31466173;28;20141;-76
2022/09/05 06:52:12;;;;;;;6.43;4.45;;;;;;;21.07;47.10;101082.72;31503523;28;20048;-75
2022/09/05 07:07:43;;;;;;;9.88;2.90;;;;;;;22.20;45.94;101092.16;31494114;28;20048;-76
2022/09/05 07:23:22;;;;;;;3.35;2.03;;;;;;;22.21;42.92;101066.00;31509476;28;20413;-77
2022/09/05 07:38:49;;;;;;;3.08;2.33;;;;;;;22.51;43.66;101067.53;31468058;28;20375;-77
2022/09/05 08:10:32;;;;;;;2.92;1.80;;;;;;;23.69;40.53;101045.09;31485070;28;20003;-76
2022/09/05 08:26:19;;;;;;;3.83;2.30;;;;;;;24.66;35.66;101013.75;31494910;28;20113;-77
2022/09/05 08:41:29;;;;;;;8.18;4.60;;;;;;;24.83;36.04;101003.50;31488755;28;20410;-76
2022/09/05 08:57:17;;;;;;;4.93;2.22;;;;;;;25.59;33.41;100991.00;31484379;28;20106;-78
2022/09/05 09:12:59;;;;;;;5.43;3.20;;;;;;;23.62;36.01;100988.06;31515804;28;20147;-79
2022/09/05 09:28:41;;;;;;;3.22;1.73;;;;;;;25.07;32.74;100961.50;31482456;28;20057;-78
2022/09/05 09:44:42;;;;;;;3.25;2.20;;;;;;;24.56;34.15;100956.91;31485545;28;20130;-82
2022/09/05 10:00:10;;;;;;;2.60;1.30;;;;;;;24.67;31.71;100948.66;31484217;28;20048;-77
2022/09/05 10:15:28;;;;;;;2.28;1.45;;;;;;;26.12;29.17;100924.09;31474480;28;20394;-76
2022/09/05 10:31:07;;;;;;;5.28;2.13;;;;;;;26.38;28.99;100911.94;31482126;28;20435;-77
2022/09/05 10:46:55;;;;;;;5.18;1.85;;;;;;;23.52;31.47;100914.66;31485401;28;20082;-77
2022/09/05 11:02:06;;;;;;;4.20;1.80;;;;;;;22.28;33.56;100910.75;31504310;28;20060;-78
2022/09/05 11:17:39;;;;;;;3.80;1.00;;;;;;;24.33;31.85;100883.84;31517761;28;20425;-76
2022/09/05 11:33:14;;;;;;;2.95;1.42;;;;;;;27.03;26.79;100855.78;31511082;28;20146;-77
2022/09/05 11:49:14;;;;;;;4.60;2.90;;;;;;;26.24;29.52;100854.50;31499695;28;20060;-76
2022/09/05 12:04:28;;;;;;;3.28;1.67;;;;;;;23.88;29.03;100830.06;31278836;28;20056;-76
2022/09/05 12:19:40;;;;;;;2.47;1.33;;;;;;;22.87;31.64;100816.50;31495352;28;20074;-77
2022/09/05 12:34:50;;;;;;;1.85;1.25;;;;;;;22.24;33.16;100811.41;31503011;28;20453;-79
2022/09/05 12:50:18;;;;;;;2.58;1.20;;;;;;;22.23;33.07;100800.81;31497581;28;20053;-76
2022/09/05 13:05:43;;;;;;;1.85;1.20;;;;;;;22.05;32.09;100788.75;31490768;28;20094;-78
2022/09/05 13:21:28;;;;;;;1.48;1.00;;;;;;;21.42;30.76;100776.47;31477504;28;20383;-77
2022/09/05 13:36:30;;;;;;;2.83;0.95;;;;;;;21.39;33.54;100774.66;31497671;28;20126;-75
2022/09/05 13:51:55;;;;;;;2.05;1.10;;;;;;;21.31;33.31;100774.25;31489121;28;20052;-80
2022/09/05 14:07:06;;;;;;;1.45;0.90;;;;;;;20.92;33.63;100773.53;31482455;28;20139;-78
2022/09/05 14:23:05;;;;;;;3.65;2.08;;;;;;;20.77;34.95;100768.00;31482785;28;20463;-77
2022/09/05 14:38:17;;;;;;;3.70;1.73;;;;;;;20.32;36.28;100765.53;31518668;28;20064;-78
2022/09/05 14:53:27;;;;;;;4.38;1.70;;;;;;;20.27;36.21;100771.72;31452958;28;20575;-75
2022/09/05 15:08:58;;;;;;;3.00;1.60;;;;;;;20.22;35.97;100766.84;31468396;28;20061;-76
2022/09/05 15:24:29;;;;;;;2.75;1.70;;;;;;;19.97;37.24;100760.53;31494455;28;20049;-75
2022/09/05 15:39:31;;;;;;;4.15;1.42;;;;;;;19.65;38.20;100755.78;31489317;28;20047;-76
2022/09/05 15:54:47;;;;;;;2.72;1.20;;;;;;;19.32;38.28;100752.94;31476540;28;20056;-76
2022/09/05 16:09:54;;;;;;;3.30;1.67;;;;;;;19.07;38.94;100756.81;31515981;28;20052;-76
2022/09/05 16:25:22;;;;;;;3.35;1.67;;;;;;;18.88;39.26;100758.06;31482889;28;20048;-77
2022/09/05 16:40:35;;;;;;;6.30;2.58;;;;;;;18.73;40.27;100769.66;31459640;28;20473;-82
2022/09/05 16:56:21;;;;;;;11.00;2.63;;;;;;;18.51;41.16;100828.72;31529169;28;20087;-82
2022/09/05 17:11:32;;;;;;;9.95;4.07;;;;;;;17.77;48.09;100838.69;31466246;28;20501;-87
2022/09/05 17:27:15;;;;;;;8.07;4.80;;;;;;;17.67;50.84;100834.38;31426487;28;20581;-88
2022/09/05 17:42:58;;;;;;;10.57;5.70;;;;;;;17.55;52.01;100830.44;31488613;28;20040;-85
2022/09/05 17:58:24;;;;;;;10.93;5.72;;;;;;;17.45;53.00;100848.09;31463205;28;20143;-84
2022/09/05 18:14:04;;;;;;;9.48;5.60;;;;;;;17.29;53.61;100854.50;31490076;28;20494;-85
2022/09/05 18:29:50;;;;;;;11.75;5.70;;;;;;;17.19;54.72;100852.94;31507629;28;20054;-82
2022/09/05 18:45:16;;;;;;;10.93;6.50;;;;;;;16.85;56.40;100850.94;31419736;28;20083;-82
2022/09/05 19:00:35;;;;;;;9.95;6.03;;;;;;;16.48;57.79;100858.03;31461579;28;20537;-79
2022/09/05 19:15:57;;;;;;;11.43;6.00;;;;;;;16.28;57.89;100861.00;31482900;28;20406;-80
2022/09/05 19:31:23;;;;;;;11.73;6.13;;;;;;;16.05;59.62;100864.06;31480713;28;20040;-79
2022/09/05 19:46:50;;;;;;;14.90;7.90;;;;;;;15.95;61.43;100849.47;31509702;28;20060;-80
2022/09/05 20:02:24;;;;;;;12.82;7.35;;;;;;;15.93;62.36;100867.53;31516427;28;20128;-81
2022/09/05 20:17:36;;;;;;;16.37;7.43;;;;;;;15.83;62.45;100855.69;31490929;28;20155;-82
2022/09/05 20:32:49;;;;;;;18.67;8.68;;;;;;;15.81;62.83;100841.69;31454057;28;20047;-80
2022/09/05 20:47:51;;;;;;;19.00;8.07;;;;;;;15.47;65.98;100819.59;31475598;28;20067;-81
2022/09/05 21:03:28;;;;;;;14.43;8.33;;;;;;;15.20;69.79;100798.81;31490904;28;20045;-82
2022/09/05 21:18:31;;;;;;;15.60;8.50;;;;;;;15.17;68.28;100788.75;31486489;28;20055;-82
2022/09/05 21:33:41;;;;;;;20.23;10.27;;;;;;;15.10;69.77;100797.16;31489942;28;20036;-82
2022/09/05 21:48:46;;;;;;;14.87;8.50;;;;;;;15.05;68.87;100781.28;31489759;28;20060;-81
2022/09/05 22:03:57;;;;;;;20.83;8.47;;;;;;;15.02;70.83;100798.56;31500162;28;20039;-82
2022/09/05 22:19:00;;;;;;;14.60;7.77;;;;;;;15.00;70.88;100792.75;31500882;28;20424;-81
2022/09/05 22:34:02;;;;;;;11.17;6.73;;;;;;;15.02;70.32;100793.09;31492392;28;20128;-82
2022/09/05 22:49:04;;;;;;;10.73;5.80;;;;;;;14.68;71.47;100782.63;31497343;28;20501;-81
2022/09/05 23:04:06;;;;;;;11.73;6.30;;;;;;;14.29;72.91;100789.06;31508634;28;20167;-80
2022/09/05 23:19:08;;;;;;;13.60;6.00;;;;;;;13.99;74.15;100799.09;31529499;28;20052;-80
2022/09/05 23:34:10;;;;;;;12.13;6.27;;;;;;;13.84;76.67;100797.88;31502603;28;20053;-80
2022/09/05 23:49:12;;;;;;;11.77;6.00;;;;;;;13.78;78.05;100799.56;31500485;28;20056;-81
